Pagrindinis puslapis
METAR-TAF:

METAR-TAF

Oro uostai :

Boca Raton, Florida, Jungtinės Amerikos Valstijos

platuma: 26-22-43N, ilguma: 080-06-28W, Aukštis: 4 m

Dabartinis oras

Ataskaita buvo paskelbta 44 minutes, ne 16:53 UTC
Vėjas 9 kt iš Vakarų
Temperatūra 32°C
Drėgmė 59%
Slėgis 1013 hPa
Matomumas: 16.1 km
Išsisklaidę debesys ne aukštis 3000 ft

METAR: KBCT 171653Z 28009KT 10SM SCT030 32/23 A2992

Laikas: 13:37 (17:37 UTC)


TAF: trūkstamas

Orai ataskaitas ir orų prognozės (METAR, TAF).

turimą stotys yra geltonos ir raudonos taškus žemėlapyje.

Perkelti pele per norėdami pamatyti stoties vardą.

Tada spustelėkite, norėdami matyti oro stebėjimo ir prognozės.

Norėdami pakeisti žemėlapį: spustelėkite ant žalios mygtukų su juodo kryžiaus žemyn,; žalią mygtuką su brūkšneliu, jei norite nutolinti; arba žalių rodyklių gretimoms žemėlapius.


METAR-TAF: